Time;durP1;ratioP1;P1;durP2;ratioP2;P2;SDS_P1;SDS_P2;PMS_P1;PMS_P2;Temp;Humidity;BMP_temperature;BMP_pressure;BME280_temperature;BME280_humidity;BME280_pressure;Samples;Min_cycle;Max_cycle;Signal;HPM_P1;HPM_P2
2022/12/12 00:02:22;;;;;;;41.20;15.40;;;;;;;-2.34;93.55;99182.18;102897;1305;25248;-59
2022/12/12 00:04:56;;;;;;;37.30;13.50;;;;;;;-2.34;93.58;99179.75;102820;1283;22670;-59
2022/12/12 00:07:28;;;;;;;38.80;14.40;;;;;;;-2.33;93.67;99175.52;103001;1282;22456;-60
2022/12/12 00:10:00;;;;;;;51.40;16.60;;;;;;;-2.33;93.72;99174.50;102844;1306;22632;-59
2022/12/12 00:12:31;;;;;;;40.70;15.80;;;;;;;-2.34;93.77;99173.42;102822;1282;22733;-59
2022/12/12 00:15:03;;;;;;;42.20;15.30;;;;;;;-2.34;93.91;99172.89;102926;1291;25512;-59
2022/12/12 00:17:35;;;;;;;41.70;16.20;;;;;;;-2.34;93.87;99175.45;103069;1284;22923;-58
2022/12/12 00:20:07;;;;;;;42.90;19.20;;;;;;;-2.34;93.75;99175.08;102903;1282;24341;-60
2022/12/12 00:22:38;;;;;;;47.40;18.90;;;;;;;-2.34;93.83;99171.23;102841;1274;22468;-60
2022/12/12 00:25:11;;;;;;;46.00;17.60;;;;;;;-2.33;93.88;99170.59;102884;1282;22989;-60
2022/12/12 00:27:42;;;;;;;46.20;15.70;;;;;;;-2.32;93.99;99171.77;102903;1282;24441;-60
2022/12/12 00:30:16;;;;;;;53.40;21.00;;;;;;;-2.32;93.91;99173.55;102843;1283;22488;-59
2022/12/12 00:32:48;;;;;;;52.30;19.40;;;;;;;-2.31;93.98;99173.61;102879;1306;22860;-60
2022/12/12 00:35:19;;;;;;;53.70;19.70;;;;;;;-2.30;94.03;99174.13;102907;1282;22471;-58
2022/12/12 00:37:55;;;;;;;52.90;17.70;;;;;;;-2.30;94.11;99171.95;102996;1306;22467;-60
2022/12/12 00:40:26;;;;;;;55.00;19.20;;;;;;;-2.30;93.99;99172.89;102973;1282;22610;-59
2022/12/12 00:42:57;;;;;;;42.00;15.60;;;;;;;-2.31;94.04;99176.73;102861;1305;22490;-60
2022/12/12 00:45:29;;;;;;;48.00;17.10;;;;;;;-2.29;94.21;99179.11;102887;1283;25498;-58
2022/12/12 00:48:03;;;;;;;43.50;16.60;;;;;;;-2.29;94.16;99185.68;102936;1306;25596;-60
2022/12/12 00:50:35;;;;;;;52.40;18.60;;;;;;;-2.30;94.19;99183.73;102861;1288;24021;-59
2022/12/12 00:53:08;;;;;;;59.90;18.60;;;;;;;-2.28;94.23;99186.52;102243;1306;25454;-60
2022/12/12 00:55:40;;;;;;;51.80;20.70;;;;;;;-2.27;94.30;99187.12;102886;1282;22472;-60
2022/12/12 00:58:11;;;;;;;43.50;15.80;;;;;;;-2.27;94.29;99187.42;103196;1305;25102;-60
2022/12/12 01:00:42;;;;;;;42.70;16.40;;;;;;;-2.26;94.37;99187.81;102930;1298;27702;-59
2022/12/12 01:03:14;;;;;;;41.90;15.50;;;;;;;-2.26;94.35;99190.23;102877;1283;24243;-59
2022/12/12 01:05:47;;;;;;;47.30;16.40;;;;;;;-2.25;94.42;99190.21;102845;1306;24546;-60
2022/12/12 01:08:21;;;;;;;39.00;14.00;;;;;;;-2.25;94.46;99192.07;103003;1281;24291;-60
2022/12/12 01:10:53;;;;;;;46.00;16.10;;;;;;;-2.24;94.43;99195.74;102882;1277;22733;-59
2022/12/12 01:13:24;;;;;;;47.00;15.90;;;;;;;-2.24;94.55;99196.75;102910;1281;22512;-59
2022/12/12 01:15:56;;;;;;;46.20;16.90;;;;;;;-2.23;94.54;99195.57;102871;1306;22509;-59
2022/12/12 01:18:28;;;;;;;47.40;17.30;;;;;;;-2.24;94.56;99194.33;103031;1282;22491;-58
2022/12/12 01:20:59;;;;;;;46.30;16.30;;;;;;;-2.22;94.59;99193.20;102985;1284;24693;-58
2022/12/12 01:23:31;;;;;;;49.60;17.80;;;;;;;-2.20;94.70;99195.36;103116;1281;25483;-60
2022/12/12 01:26:04;;;;;;;59.80;21.50;;;;;;;-2.18;94.60;99190.33;102939;1281;22511;-60
2022/12/12 01:28:35;;;;;;;46.10;16.00;;;;;;;-2.19;94.84;99187.30;103237;1282;22465;-59
2022/12/12 01:31:08;;;;;;;53.30;18.80;;;;;;;-2.21;94.90;99186.23;103053;1298;22507;-58
2022/12/12 01:33:44;;;;;;;44.80;16.10;;;;;;;-2.22;94.77;99188.89;102979;1306;22492;-60
2022/12/12 01:36:18;;;;;;;47.90;16.20;;;;;;;-2.22;94.81;99185.63;102891;1283;22521;-59
2022/12/12 01:38:52;;;;;;;38.70;15.40;;;;;;;-2.22;94.67;99184.52;102950;1292;22599;-59
2022/12/12 01:41:23;;;;;;;46.60;16.50;;;;;;;-2.22;94.68;99181.95;102768;1282;22484;-61
2022/12/12 01:43:55;;;;;;;53.60;19.80;;;;;;;-2.21;94.82;99182.48;102870;1281;24700;-60
2022/12/12 01:46:34;;;;;;;46.60;16.00;;;;;;;-2.20;94.77;99182.63;102930;1281;22521;-59
2022/12/12 01:49:13;;;;;;;44.00;16.50;;;;;;;-2.19;94.86;99184.33;102779;1287;23829;-59
2022/12/12 01:51:48;;;;;;;48.50;18.30;;;;;;;-2.20;94.78;99181.30;102847;1298;22466;-59
2022/12/12 01:54:24;;;;;;;46.60;17.80;;;;;;;-2.18;94.77;99179.80;102851;1285;24100;-60
2022/12/12 01:56:57;;;;;;;38.80;15.00;;;;;;;-2.19;94.89;99179.63;102894;1299;22596;-59
2022/12/12 01:59:29;;;;;;;41.10;14.50;;;;;;;-2.19;95.20;99181.52;103138;1282;23204;-60
2022/12/12 02:02:01;;;;;;;42.80;15.10;;;;;;;-2.20;95.13;99181.77;102930;1298;22766;-60
2022/12/12 02:04:33;;;;;;;39.90;13.10;;;;;;;-2.21;95.12;99186.69;102881;1282;25128;-60
2022/12/12 02:07:05;;;;;;;43.40;15.00;;;;;;;-2.22;95.20;99187.73;102853;1306;24364;-59
2022/12/12 02:09:38;;;;;;;45.40;14.70;;;;;;;-2.21;95.05;99183.66;102920;1306;23156;-59
2022/12/12 02:12:17;;;;;;;37.50;14.30;;;;;;;-2.20;95.12;99184.19;102944;1306;22515;-59
2022/12/12 02:14:52;;;;;;;39.20;14.40;;;;;;;-2.20;95.08;99181.14;102912;1306;23190;-58
2022/12/12 02:17:49;;;;;;;41.30;14.90;;;;;;;-2.18;95.02;99185.63;103183;1282;22533;-59
2022/12/12 02:20:39;;;;;;;42.60;13.60;;;;;;;-2.17;95.03;99186.39;102865;1285;22471;-60
2022/12/12 02:23:41;;;;;;;45.70;14.70;;;;;;;-2.16;95.02;99190.91;102904;1282;22589;-59
2022/12/12 02:26:54;;;;;;;36.80;13.30;;;;;;;-2.15;95.00;99189.80;102947;1281;25496;-59
2022/12/12 02:29:55;;;;;;;40.40;13.90;;;;;;;-2.13;95.03;99191.17;102022;1293;22813;-60
2022/12/12 02:32:35;;;;;;;40.10;13.20;;;;;;;-2.13;95.14;99189.99;102350;1286;22480;-59
2022/12/12 02:35:16;;;;;;;43.90;14.30;;;;;;;-2.13;94.99;99183.89;102168;1293;25324;-60
2022/12/12 02:37:57;;;;;;;37.50;12.20;;;;;;;-2.12;95.01;99184.27;102077;1294;22600;-60
2022/12/12 02:40:34;;;;;;;36.40;12.90;;;;;;;-2.12;95.14;99183.56;102228;1293;23044;-59
2022/12/12 02:43:12;;;;;;;44.50;13.40;;;;;;;-2.10;95.05;99189.94;102289;1294;25505;-59
2022/12/12 02:45:49;;;;;;;37.50;12.30;;;;;;;-2.10;95.29;99193.60;102078;1294;22496;-57
2022/12/12 02:48:26;;;;;;;38.40;13.70;;;;;;;-2.10;95.18;99192.04;102024;1293;22533;-60
2022/12/12 02:51:00;;;;;;;39.20;14.10;;;;;;;-2.09;95.11;99188.27;102186;1317;22741;-60
2022/12/12 02:53:32;;;;;;;40.10;13.20;;;;;;;-2.08;95.12;99188.56;102223;1293;25586;-59
2022/12/12 02:56:28;;;;;;;41.20;13.20;;;;;;;-2.08;95.20;99188.17;102145;1293;22530;-57
2022/12/12 02:59:01;;;;;;;44.80;14.60;;;;;;;-2.08;95.17;99187.08;102098;1286;25759;-58
2022/12/12 03:01:46;;;;;;;44.30;14.40;;;;;;;-2.07;95.15;99185.05;102173;1317;22679;-60
2022/12/12 03:10:17;;;;;;;45.80;16.10;;;;;;;-2.04;95.16;99180.91;102786;1283;24151;-57
2022/12/12 03:12:59;;;;;;;40.60;14.70;;;;;;;-2.02;95.15;99181.10;102908;1291;22482;-59
2022/12/12 03:15:41;;;;;;;43.00;14.20;;;;;;;-2.01;95.11;99183.59;102789;1280;25376;-59
2022/12/12 03:18:24;;;;;;;38.80;13.70;;;;;;;-1.99;95.19;99186.84;102888;1282;22589;-60
2022/12/12 03:21:01;;;;;;;43.00;14.00;;;;;;;-1.99;95.21;99186.91;102961;1282;22484;-59
2022/12/12 03:23:39;;;;;;;41.20;14.00;;;;;;;-1.99;95.19;99185.80;102967;1281;25476;-60
2022/12/12 03:26:15;;;;;;;38.80;13.90;;;;;;;-1.99;95.21;99189.41;102877;1281;22522;-59
2022/12/12 03:28:52;;;;;;;43.20;13.80;;;;;;;-1.99;95.38;99186.75;102892;1282;25645;-60
2022/12/12 03:31:28;;;;;;;42.50;13.90;;;;;;;-1.99;95.20;99188.95;102853;1282;22466;-61
2022/12/12 03:34:02;;;;;;;40.40;13.40;;;;;;;-1.99;95.24;99184.24;103033;1280;24328;-61
2022/12/12 03:36:38;;;;;;;39.40;14.60;;;;;;;-1.98;95.25;99182.90;103141;1282;24267;-60
2022/12/12 03:39:13;;;;;;;48.60;16.50;;;;;;;-1.98;95.28;99176.48;102942;1306;22471;-60
2022/12/12 03:41:49;;;;;;;41.90;12.90;;;;;;;-1.97;95.37;99177.50;102909;1306;22486;-60
2022/12/12 03:44:26;;;;;;;38.90;14.10;;;;;;;-1.98;95.29;99179.38;102822;1306;24326;-58
2022/12/12 03:47:03;;;;;;;44.10;14.30;;;;;;;-1.97;95.28;99177.88;102934;1292;22492;-58
2022/12/12 03:49:40;;;;;;;39.40;13.00;;;;;;;-1.97;95.36;99175.23;102880;1304;22504;-59
2022/12/12 03:52:16;;;;;;;41.00;13.60;;;;;;;-1.97;95.40;99175.53;102812;1307;25428;-58
2022/12/12 03:54:53;;;;;;;39.30;13.80;;;;;;;-1.97;95.48;99172.65;102859;1281;24435;-60
2022/12/12 03:57:32;;;;;;;33.90;11.30;;;;;;;-1.97;95.36;99169.38;102848;1304;22491;-59
2022/12/12 04:00:06;;;;;;;32.00;11.20;;;;;;;-1.98;95.64;99164.23;102873;1306;24417;-60
2022/12/12 04:02:44;;;;;;;40.70;14.60;;;;;;;-1.98;95.52;99163.91;103205;1288;22618;-58
2022/12/12 04:05:20;;;;;;;42.00;14.60;;;;;;;-1.99;95.64;99164.02;102907;1308;22519;-59
2022/12/12 04:07:57;;;;;;;37.40;12.30;;;;;;;-1.99;95.63;99162.45;102969;1281;26819;-60
2022/12/12 04:13:30;;;;;;;39.20;12.30;;;;;;;-2.00;95.63;99158.48;102817;1285;22505;-59
2022/12/12 04:16:04;;;;;;;39.60;13.00;;;;;;;-2.01;95.72;99160.46;102955;1288;25336;-60
2022/12/12 04:18:51;;;;;;;42.40;13.00;;;;;;;-2.02;95.70;99161.10;102832;1281;22599;-59
2022/12/12 04:24:29;;;;;;;36.00;11.20;;;;;;;-2.03;95.93;99161.36;102798;1285;24440;-60
2022/12/12 04:27:05;;;;;;;38.60;13.50;;;;;;;-2.03;95.91;99162.07;103062;1303;22491;-59
2022/12/12 04:29:46;;;;;;;40.20;12.40;;;;;;;-2.02;95.92;99162.59;102866;1306;22505;-59
2022/12/12 04:32:23;;;;;;;28.90;9.50;;;;;;;-2.02;95.89;99161.09;102821;1306;22473;-60
2022/12/12 04:34:58;;;;;;;37.40;12.80;;;;;;;-2.02;95.90;99160.48;102872;1292;22556;-59
2022/12/12 04:37:35;;;;;;;40.40;13.20;;;;;;;-2.02;96.10;99167.59;103041;1282;22687;-59
2022/12/12 04:40:12;;;;;;;41.80;13.70;;;;;;;-2.04;96.18;99174.27;102855;1306;22506;-60
2022/12/12 04:42:46;;;;;;;31.80;10.10;;;;;;;-2.05;96.09;99172.80;102897;1306;22464;-59
2022/12/12 04:45:22;;;;;;;37.50;14.20;;;;;;;-2.06;96.15;99169.46;102861;1306;22933;-60
2022/12/12 04:47:56;;;;;;;36.40;12.30;;;;;;;-2.07;96.23;99165.96;102884;1306;22513;-59
2022/12/12 04:50:32;;;;;;;36.20;13.40;;;;;;;-2.08;96.27;99164.19;103054;1291;22471;-59
2022/12/12 04:53:08;;;;;;;40.60;14.70;;;;;;;-2.08;96.18;99164.34;102845;1305;22510;-59
2022/12/12 04:55:43;;;;;;;39.20;12.10;;;;;;;-2.07;96.35;99167.70;103006;1281;22673;-60
2022/12/12 04:58:15;;;;;;;41.00;14.10;;;;;;;-2.07;96.45;99167.00;103074;1281;22508;-59
2022/12/12 05:00:52;;;;;;;32.80;12.80;;;;;;;-2.07;96.41;99161.45;102871;1282;24340;-59
2022/12/12 05:03:28;;;;;;;40.30;14.10;;;;;;;-2.07;96.41;99162.98;102788;1282;24417;-58
2022/12/12 05:06:03;;;;;;;36.40;12.90;;;;;;;-2.06;96.40;99160.16;102873;1306;22469;-60
2022/12/12 05:08:36;;;;;;;32.70;11.70;;;;;;;-2.05;96.45;99156.77;102962;1290;22464;-57
2022/12/12 05:11:08;;;;;;;36.90;13.10;;;;;;;-2.06;96.52;99153.75;102886;1282;24311;-59
2022/12/12 05:13:42;;;;;;;35.80;12.40;;;;;;;-2.05;96.51;99155.08;102861;1281;22549;-59
2022/12/12 05:16:18;;;;;;;36.40;12.80;;;;;;;-2.05;96.56;99156.00;102983;1282;26853;-59
2022/12/12 05:18:50;;;;;;;38.40;13.00;;;;;;;-2.05;96.47;99155.00;102921;1287;22475;-59
2022/12/12 05:21:22;;;;;;;39.00;14.20;;;;;;;-2.06;96.48;99155.94;102944;1284;26222;-60
2022/12/12 05:23:53;;;;;;;43.80;15.20;;;;;;;-2.05;96.48;99159.36;102835;1306;23171;-57
2022/12/12 05:26:27;;;;;;;38.10;14.70;;;;;;;-2.05;96.47;99161.45;102811;1284;22657;-60
2022/12/12 05:29:00;;;;;;;39.40;12.10;;;;;;;-2.04;96.53;99165.13;102884;1306;24775;-60
2022/12/12 05:31:31;;;;;;;36.70;13.50;;;;;;;-2.04;96.75;99162.16;102787;1288;25909;-60
2022/12/12 05:34:03;;;;;;;35.60;11.80;;;;;;;-2.04;96.70;99162.16;102878;1306;25468;-60
2022/12/12 05:36:34;;;;;;;38.30;13.80;;;;;;;-2.04;96.71;99164.80;102934;1306;25552;-64
2022/12/12 05:39:06;;;;;;;35.00;12.80;;;;;;;-2.03;96.83;99166.45;102919;1288;22487;-59
2022/12/12 05:41:37;;;;;;;36.10;11.70;;;;;;;-2.03;96.86;99165.27;103139;1294;22540;-62
2022/12/12 05:44:09;;;;;;;35.00;11.20;;;;;;;-2.04;96.87;99158.09;102787;1280;25435;-59
2022/12/12 05:46:40;;;;;;;33.30;12.20;;;;;;;-2.03;96.84;99163.33;102875;1285;22970;-59
2022/12/12 05:49:12;;;;;;;38.60;14.70;;;;;;;-2.03;96.80;99166.66;103432;1306;25278;-59
2022/12/12 05:51:45;;;;;;;35.60;12.20;;;;;;;-2.01;96.77;99168.12;102784;1282;25344;-59
2022/12/12 05:54:17;;;;;;;35.80;13.50;;;;;;;-1.99;96.79;99166.12;102937;1280;22636;-59
2022/12/12 05:56:48;;;;;;;40.10;13.10;;;;;;;-1.97;96.78;99164.05;102783;1282;25492;-63
2022/12/12 05:59:19;;;;;;;37.60;13.20;;;;;;;-1.95;96.77;99166.59;105813;1280;22518;-59
2022/12/12 06:01:51;;;;;;;37.80;12.40;;;;;;;-1.93;96.68;99164.67;103397;1281;22932;-59
2022/12/12 06:04:22;;;;;;;40.90;13.00;;;;;;;-1.91;96.69;99162.69;102884;1275;22456;-59
2022/12/12 06:06:53;;;;;;;30.00;10.20;;;;;;;-1.90;96.75;99163.67;102808;1307;22465;-59
2022/12/12 06:09:25;;;;;;;34.10;10.30;;;;;;;-1.89;96.64;99166.70;102895;1281;24261;-59
2022/12/12 06:11:56;;;;;;;34.90;11.50;;;;;;;-1.89;96.63;99165.67;102956;1312;26623;-59
2022/12/12 06:14:28;;;;;;;37.30;12.10;;;;;;;-1.87;96.68;99167.28;103154;1292;22467;-60
2022/12/12 06:16:59;;;;;;;39.70;12.80;;;;;;;-1.86;96.53;99166.80;102886;1306;25472;-59
2022/12/12 06:19:32;;;;;;;40.40;13.60;;;;;;;-1.85;96.61;99167.48;102991;1283;24311;-57
2022/12/12 06:22:04;;;;;;;37.80;13.40;;;;;;;-1.83;96.72;99171.98;102877;1306;25295;-60
2022/12/12 06:24:36;;;;;;;33.70;12.30;;;;;;;-1.82;96.66;99178.04;102988;1282;24261;-59
2022/12/12 06:27:08;;;;;;;36.80;12.30;;;;;;;-1.81;96.76;99177.09;102871;1312;25462;-61
2022/12/12 06:29:39;;;;;;;36.40;13.00;;;;;;;-1.80;96.67;99181.15;102980;1302;22481;-61
2022/12/12 06:32:10;;;;;;;34.90;11.90;;;;;;;-1.80;96.80;99176.35;102862;1291;22531;-59
2022/12/12 06:34:42;;;;;;;30.90;10.90;;;;;;;-1.79;96.84;99181.98;102768;1306;22482;-59
2022/12/12 06:37:14;;;;;;;35.20;11.00;;;;;;;-1.77;96.82;99182.64;102886;1312;22467;-59
2022/12/12 06:39:45;;;;;;;37.90;11.50;;;;;;;-1.78;96.84;99183.67;102907;1281;26224;-59
2022/12/12 06:42:17;;;;;;;34.30;11.40;;;;;;;-1.77;96.80;99180.22;102865;1288;25490;-60
2022/12/12 06:44:49;;;;;;;32.10;9.80;;;;;;;-1.76;96.92;99179.80;102977;1306;22483;-60
2022/12/12 06:47:21;;;;;;;34.30;12.00;;;;;;;-1.74;96.97;99183.91;102789;1280;24311;-60
2022/12/12 06:49:52;;;;;;;37.30;12.00;;;;;;;-1.73;96.94;99187.16;102325;1281;22477;-60
2022/12/12 06:52:24;;;;;;;35.20;12.10;;;;;;;-1.71;97.02;99191.73;102788;1288;23014;-58
2022/12/12 06:54:55;;;;;;;36.50;10.70;;;;;;;-1.70;97.05;99193.44;102835;1292;22463;-60
2022/12/12 06:57:27;;;;;;;32.00;10.50;;;;;;;-1.72;97.40;99196.05;103058;1288;22519;-60
2022/12/12 06:59:58;;;;;;;31.10;9.80;;;;;;;-1.73;97.36;99197.17;103041;1312;24337;-59
2022/12/12 07:02:29;;;;;;;31.90;10.30;;;;;;;-1.73;97.41;99194.45;103047;1287;25578;-60
2022/12/12 07:05:01;;;;;;;28.70;10.60;;;;;;;-1.72;97.34;99197.23;103015;1288;25330;-59
2022/12/12 07:07:33;;;;;;;31.00;10.40;;;;;;;-1.71;97.37;99194.48;103609;1282;25413;-60
2022/12/12 07:10:05;;;;;;;29.60;9.10;;;;;;;-1.70;97.42;99201.95;102847;1298;22568;-59
2022/12/12 07:12:36;;;;;;;33.10;10.00;;;;;;;-1.68;97.44;99202.55;103253;1291;22646;-60
2022/12/12 07:15:09;;;;;;;35.60;12.10;;;;;;;-1.67;97.47;99200.81;102806;1312;22467;-60
2022/12/12 07:17:41;;;;;;;34.50;13.00;;;;;;;-1.67;97.55;99202.52;103116;1283;25356;-60
2022/12/12 07:20:13;;;;;;;32.80;11.00;;;;;;;-1.66;97.60;99204.08;103001;1281;22481;-60
2022/12/12 07:22:44;;;;;;;38.70;13.00;;;;;;;-1.65;97.68;99208.50;102776;1302;22941;-59
2022/12/12 07:25:16;;;;;;;31.20;11.20;;;;;;;-1.63;97.68;99203.09;103027;1281;25510;-57
2022/12/12 07:27:49;;;;;;;32.90;12.80;;;;;;;-1.62;97.66;99208.06;103208;1305;22489;-60
2022/12/12 07:30:21;;;;;;;28.40;9.00;;;;;;;-1.60;97.78;99206.52;102884;1290;22538;-59
2022/12/12 07:32:53;;;;;;;34.10;11.70;;;;;;;-1.58;97.88;99206.58;102730;1280;22489;-60
2022/12/12 07:35:25;;;;;;;34.10;11.90;;;;;;;-1.57;97.82;99207.48;102774;1281;24574;-60
2022/12/12 07:37:56;;;;;;;32.60;10.70;;;;;;;-1.54;97.66;99202.83;103527;1288;23036;-60
2022/12/12 07:40:27;;;;;;;34.30;9.50;;;;;;;-1.52;97.73;99204.02;102981;1281;27835;-61
2022/12/12 07:42:59;;;;;;;32.50;11.20;;;;;;;-1.50;97.72;99205.23;103256;1296;22463;-59
2022/12/12 07:45:30;;;;;;;30.90;12.00;;;;;;;-1.48;97.59;99209.41;102986;1292;23161;-62
2022/12/12 07:48:02;;;;;;;28.00;9.40;;;;;;;-1.45;97.72;99215.52;103170;1307;23924;-59
2022/12/12 07:50:33;;;;;;;27.30;10.50;;;;;;;-1.44;97.70;99216.66;103033;1281;22461;-60
2022/12/12 07:53:05;;;;;;;31.80;11.00;;;;;;;-1.42;97.76;99218.13;103236;1280;22478;-60
2022/12/12 07:55:39;;;;;;;34.20;11.60;;;;;;;-1.41;97.75;99215.27;102826;1310;22577;-60
2022/12/12 07:58:10;;;;;;;32.10;11.30;;;;;;;-1.38;97.73;99217.42;103101;1307;25465;-60
2022/12/12 08:00:42;;;;;;;28.90;10.60;;;;;;;-1.36;97.75;99216.19;102788;1309;22591;-59
2022/12/12 08:03:13;;;;;;;30.40;10.40;;;;;;;-1.35;97.80;99215.37;102890;1284;25614;-61
2022/12/12 08:05:45;;;;;;;29.40;10.10;;;;;;;-1.33;97.76;99222.70;102778;1282;24601;-60
2022/12/12 08:08:16;;;;;;;25.00;8.60;;;;;;;-1.31;97.70;99225.06;102792;1280;24446;-60
2022/12/12 08:10:47;;;;;;;30.80;9.80;;;;;;;-1.29;97.76;99225.83;102747;1288;22476;-60
2022/12/12 08:13:20;;;;;;;34.20;11.80;;;;;;;-1.28;97.82;99222.43;102756;1304;25231;-60
2022/12/12 08:15:52;;;;;;;28.20;9.80;;;;;;;-1.26;97.93;99224.80;103008;1306;25350;-59
2022/12/12 08:18:23;;;;;;;34.10;12.40;;;;;;;-1.24;97.85;99225.73;102765;1282;22469;-60
2022/12/12 08:20:55;;;;;;;31.60;11.70;;;;;;;-1.22;97.85;99227.87;102818;1298;22476;-59
2022/12/12 08:23:26;;;;;;;41.20;14.40;;;;;;;-1.21;97.90;99226.89;102832;1282;22482;-60
2022/12/12 08:25:57;;;;;;;37.40;12.30;;;;;;;-1.19;98.03;99225.84;102986;1306;22492;-59
2022/12/12 08:28:29;;;;;;;38.00;14.00;;;;;;;-1.18;97.93;99224.33;102809;1281;22472;-60
2022/12/12 08:31:00;;;;;;;34.70;11.40;;;;;;;-1.16;97.99;99224.97;102826;1305;22587;-60
2022/12/12 08:33:32;;;;;;;37.30;13.50;;;;;;;-1.14;97.99;99226.12;102761;1282;25363;-60
2022/12/12 08:36:13;;;;;;;38.90;13.40;;;;;;;-1.12;97.89;99227.02;103170;1306;22527;-60
2022/12/12 08:38:45;;;;;;;33.30;11.30;;;;;;;-1.11;98.03;99230.89;105029;1298;22639;-60
2022/12/12 08:41:18;;;;;;;33.10;12.00;;;;;;;-1.11;98.02;99236.05;103036;1282;25555;-59
2022/12/12 08:43:49;;;;;;;34.20;10.80;;;;;;;-1.09;97.97;99233.84;102863;1306;24007;-58
2022/12/12 08:46:22;;;;;;;32.00;10.50;;;;;;;-1.08;97.93;99240.54;102853;1291;22535;-59
2022/12/12 08:48:53;;;;;;;26.80;8.60;;;;;;;-1.06;97.93;99245.28;102907;1280;22501;-59
2022/12/12 08:51:24;;;;;;;27.30;9.50;;;;;;;-1.05;97.92;99247.67;102781;1298;22477;-59
2022/12/12 08:53:56;;;;;;;32.20;13.40;;;;;;;-1.04;97.85;99250.00;102924;1283;22486;-60
2022/12/12 08:56:29;;;;;;;28.90;10.20;;;;;;;-1.03;97.77;99253.48;102947;1281;22510;-59
2022/12/12 08:59:01;;;;;;;31.00;12.60;;;;;;;-1.04;97.69;99253.20;103054;1277;24154;-60
2022/12/12 09:01:32;;;;;;;25.10;9.00;;;;;;;-1.03;97.74;99251.84;102942;1306;22471;-60
2022/12/12 09:04:04;;;;;;;25.60;8.90;;;;;;;-1.01;97.70;99247.50;103028;1304;24347;-63
2022/12/12 09:06:35;;;;;;;29.80;10.80;;;;;;;-1.01;97.68;99248.29;102992;1294;22611;-62
2022/12/12 09:09:06;;;;;;;27.20;9.20;;;;;;;-0.99;97.74;99250.59;102995;1290;25408;-62
2022/12/12 09:11:38;;;;;;;26.10;8.90;;;;;;;-0.97;97.81;99246.95;102938;1282;25718;-62
2022/12/12 09:14:09;;;;;;;28.60;9.50;;;;;;;-0.97;97.80;99249.75;102922;1288;25561;-62
2022/12/12 09:16:41;;;;;;;29.70;11.10;;;;;;;-0.96;97.95;99249.58;102986;1297;22619;-62
2022/12/12 09:19:12;;;;;;;25.60;9.00;;;;;;;-0.94;98.02;99249.91;103149;1280;22530;-62
2022/12/12 09:21:44;;;;;;;27.60;9.00;;;;;;;-0.92;97.98;99254.35;102916;1306;22470;-62
2022/12/12 09:24:15;;;;;;;22.60;7.80;;;;;;;-0.91;97.95;99252.45;102972;1291;22532;-62
2022/12/12 09:26:47;;;;;;;27.40;9.20;;;;;;;-0.91;98.01;99251.91;103017;1306;26316;-62
2022/12/12 09:29:18;;;;;;;26.30;9.50;;;;;;;-0.89;98.05;99253.19;102877;1308;25553;-62
2022/12/12 09:31:50;;;;;;;26.10;9.40;;;;;;;-0.88;98.03;99252.84;102971;1280;23738;-62
2022/12/12 09:34:22;;;;;;;20.80;6.20;;;;;;;-0.87;97.99;99254.86;102790;1280;23751;-62
2022/12/12 09:36:53;;;;;;;24.70;7.10;;;;;;;-0.87;98.02;99252.20;103000;1282;24265;-63
2022/12/12 09:39:25;;;;;;;30.80;10.00;;;;;;;-0.87;97.94;99255.95;103261;1285;23226;-62
2022/12/12 09:41:57;;;;;;;32.50;10.40;;;;;;;-0.86;97.91;99252.73;102864;1306;24260;-62
2022/12/12 09:44:29;;;;;;;21.50;7.80;;;;;;;-0.84;97.97;99255.09;102798;1282;25373;-62
2022/12/12 09:47:06;;;;;;;24.40;9.30;;;;;;;-0.81;97.98;99255.18;103025;1306;26528;-62
2022/12/12 09:49:45;;;;;;;19.50;6.10;;;;;;;-0.77;97.92;99252.83;102758;1306;22664;-62
2022/12/12 09:52:18;;;;;;;24.10;7.60;;;;;;;-0.78;97.88;99254.02;102869;1283;22525;-63
2022/12/12 09:54:49;;;;;;;22.90;7.90;;;;;;;-0.79;97.91;99256.80;103072;1281;25039;-62
2022/12/12 09:57:28;;;;;;;28.80;10.90;;;;;;;-0.77;97.82;99249.48;103182;1280;23309;-62
2022/12/12 10:00:06;;;;;;;25.70;8.50;;;;;;;-0.74;97.90;99255.04;102831;1282;22483;-63
2022/12/12 10:02:48;;;;;;;26.20;9.40;;;;;;;-0.71;97.85;99258.73;102919;1291;22466;-63
2022/12/12 10:05:33;;;;;;;23.10;7.30;;;;;;;-0.68;97.93;99258.66;102860;1306;22487;-62
2022/12/12 10:08:14;;;;;;;22.10;7.10;;;;;;;-0.68;97.75;99260.31;102762;1283;22469;-63
2022/12/12 10:10:48;;;;;;;29.10;9.40;;;;;;;-0.68;97.69;99261.48;102858;1274;22536;-63
2022/12/12 10:13:23;;;;;;;23.20;7.50;;;;;;;-0.68;97.83;99262.19;102833;1282;26828;-63
2022/12/12 10:15:59;;;;;;;28.50;8.80;;;;;;;-0.69;97.85;99263.23;102885;1306;22499;-61
2022/12/12 10:18:35;;;;;;;28.40;8.60;;;;;;;-0.68;98.00;99263.27;103029;1274;25308;-62
2022/12/12 10:21:14;;;;;;;25.50;9.20;;;;;;;-0.66;97.96;99258.38;102881;1282;22480;-62
2022/12/12 10:23:49;;;;;;;26.00;10.10;;;;;;;-0.62;98.12;99258.28;102785;1306;22461;-62
2022/12/12 10:26:24;;;;;;;28.90;8.80;;;;;;;-0.59;98.08;99256.40;102921;1306;22602;-62
2022/12/12 10:29:09;;;;;;;25.60;9.10;;;;;;;-0.57;97.92;99259.55;102861;1306;25569;-62
2022/12/12 10:31:48;;;;;;;28.10;8.30;;;;;;;-0.55;97.86;99255.30;102923;1278;22610;-62
2022/12/12 10:34:37;;;;;;;23.40;7.80;;;;;;;-0.54;97.84;99254.16;102911;1281;22466;-62
2022/12/12 10:37:27;;;;;;;24.60;7.40;;;;;;;-0.52;97.61;99258.12;102854;1306;23717;-62
2022/12/12 10:40:14;;;;;;;25.50;7.40;;;;;;;-0.50;97.69;99256.96;102833;1306;25352;-63
2022/12/12 10:42:51;;;;;;;21.10;7.80;;;;;;;-0.48;97.71;99260.60;102763;1306;22817;-62
2022/12/12 10:45:40;;;;;;;27.00;9.10;;;;;;;-0.46;97.74;99252.88;102824;1306;25322;-62
2022/12/12 10:48:12;;;;;;;26.80;8.50;;;;;;;-0.42;97.66;99258.27;102925;1275;22489;-62
2022/12/12 10:50:49;;;;;;;27.60;9.00;;;;;;;-0.40;97.58;99259.31;102766;1281;24170;-62
2022/12/12 10:53:22;;;;;;;31.40;9.10;;;;;;;-0.39;97.52;99259.59;102820;1305;22556;-61
2022/12/12 10:55:56;;;;;;;28.10;8.50;;;;;;;-0.37;97.39;99263.15;102886;1292;25482;-63
2022/12/12 10:58:35;;;;;;;24.70;8.90;;;;;;;-0.35;97.37;99261.02;103013;1280;25344;-63
2022/12/12 11:01:17;;;;;;;28.40;9.10;;;;;;;-0.34;97.23;99262.13;102927;1306;25334;-63
2022/12/12 11:03:51;;;;;;;25.10;9.70;;;;;;;-0.30;97.38;99258.67;103107;1291;22480;-62
2022/12/12 11:06:30;;;;;;;28.00;9.80;;;;;;;-0.29;97.33;99256.22;102806;1284;22501;-62
2022/12/12 11:09:08;;;;;;;26.60;8.70;;;;;;;-0.26;97.35;99258.11;102695;1284;22596;-63
2022/12/12 11:11:39;;;;;;;24.90;9.00;;;;;;;-0.26;97.05;99256.68;102702;1282;22465;-63
2022/12/12 11:14:28;;;;;;;27.10;9.10;;;;;;;-0.25;97.08;99258.85;102623;1282;25267;-63
2022/12/12 11:16:59;;;;;;;28.50;9.20;;;;;;;-0.23;97.07;99256.29;102972;1280;24301;-62
2022/12/12 11:19:38;;;;;;;26.50;8.70;;;;;;;-0.20;96.96;99261.79;102904;1280;25548;-63
2022/12/12 11:22:13;;;;;;;26.80;7.60;;;;;;;-0.19;96.94;99260.98;102564;1281;22651;-62
2022/12/12 11:24:47;;;;;;;25.30;8.10;;;;;;;-0.19;96.98;99257.82;102838;1306;22474;-62
2022/12/12 11:27:23;;;;;;;24.30;8.70;;;;;;;-0.18;96.75;99264.55;105080;1306;24327;-62
2022/12/12 11:29:58;;;;;;;26.40;8.70;;;;;;;-0.18;96.98;99263.76;102992;1285;22490;-61
2022/12/12 11:32:38;;;;;;;26.80;8.40;;;;;;;-0.16;96.93;99266.48;103235;1291;25541;-63
2022/12/12 11:35:24;;;;;;;26.10;8.80;;;;;;;-0.15;96.82;99271.52;103229;1282;22484;-63
2022/12/12 11:37:59;;;;;;;25.70;8.30;;;;;;;-0.12;96.82;99270.36;103423;1298;25231;-63
2022/12/12 11:40:34;;;;;;;29.70;8.60;;;;;;;-0.11;96.71;99266.50;103209;1306;24930;-63
2022/12/12 11:43:22;;;;;;;24.30;7.90;;;;;;;-0.10;96.72;99269.53;103424;1285;22489;-63
2022/12/12 11:46:07;;;;;;;23.70;7.40;;;;;;;-0.08;96.66;99269.39;103241;1281;22993;-62
2022/12/12 11:48:43;;;;;;;21.30;7.30;;;;;;;-0.06;96.69;99268.88;103241;1282;22486;-63
2022/12/12 11:51:30;;;;;;;42.50;16.10;;;;;;;-0.04;96.44;99267.41;103412;1282;22476;-63
2022/12/12 11:54:03;;;;;;;25.90;8.90;;;;;;;-0.01;96.56;99272.13;103017;1282;22464;-64
2022/12/12 11:56:45;;;;;;;21.50;7.80;;;;;;;0.01;96.47;99266.89;102884;1277;25359;-62
2022/12/12 11:59:37;;;;;;;24.40;8.20;;;;;;;0.04;96.39;99274.83;103494;1281;22467;-63